Terminal Aerodrome Forecast
Issued by NWS

Home | Current Version | Previous Version | Text Only | Print | Product List | Glossary On
Versions: 1 2 3 4 5 6 7 8 9 10 11 12 13 14 15 16 17 18 19 20 21 22 23 24 25 26 27 28 29 30 31 32 33 34 35 36 37 38
000
FTUS43 KDMX 260527
TAFMCW
TAF
KMCW 260527Z 2606/2706 15008KT 6SM BR SCT025 OVC050
     FM261100 32008KT 5SM BR SCT016 OVC020
     FM261400 36010KT 3SM -DZ BR BKN016 OVC022
     FM262200 01011KT 5SM -RASN SCT005 BKN018
     FM270100 36012G16KT 3SM -SN BKN004 BKN008=

USA.gov is the U.S. government's official web portal to all federal, state and local government web resources and services.